Wetterdaten: Donnerstag, 05.12.2013
Datum Zeit Temperatur Luftfeuchte Luftdruck Regen Wind Richtung Richtung Taupunkt Windchill Windben
05.12.2013 00:01 -1,6 C 96 % 1026,8 hPa 0,0 l/m 4,3 km/h (1 Bft) S-SO 157 -2,2 C -3,1 C 3,7 km/h (1 Bft)
05.12.2013 00:05 -1,5 C 96 % 1026,9 hPa 0,0 l/m 4,7 km/h (1 Bft) S 180 -2,1 C -3,1 C 7,6 km/h (2 Bft)
05.12.2013 00:12 -1,5 C 96 % 1026,9 hPa 0,0 l/m 4,8 km/h (1 Bft) S-SO 157 -2,1 C -3,2 C 7,2 km/h (2 Bft)
05.12.2013 00:15 -1,5 C 96 % 1026,9 hPa 0,0 l/m 5,0 km/h (1 Bft) S-SO 157 -2,1 C -3,2 C 4,3 km/h (1 Bft)
05.12.2013 00:23 -1,5 C 96 % 1027,2 hPa 0,0 l/m 4,5 km/h (1 Bft) SO 135 -2,1 C -2,9 C 4,5 km/h (1 Bft)
05.12.2013 00:25 -1,5 C 96 % 1027,2 hPa 0,0 l/m 4,5 km/h (1 Bft) SO 135 -2,1 C -2,9 C 4,5 km/h (1 Bft)
05.12.2013 00:34 -1,4 C 96 % 1027,2 hPa 0,0 l/m 5,1 km/h (1 Bft) S 180 -2,0 C -3,1 C 6,1 km/h (2 Bft)
05.12.2013 00:35 -1,4 C 96 % 1027,2 hPa 0,0 l/m 5,1 km/h (1 Bft) S 180 -2,0 C -3,1 C 6,1 km/h (2 Bft)
05.12.2013 00:45 -1,3 C 96 % 1027,3 hPa 0,0 l/m 5,3 km/h (1 Bft) S 180 -1,9 C -3,1 C 8,7 km/h (2 Bft)
05.12.2013 00:50 -1,3 C 96 % 1027,3 hPa 0,0 l/m 5,6 km/h (1 Bft) S-SW 202 -1,9 C -3,3 C 5,8 km/h (2 Bft)
05.12.2013 00:56 -1,2 C 96 % 1027,3 hPa 0,0 l/m 6,3 km/h (2 Bft) SO 135 -1,8 C -3,6 C 6,6 km/h (2 Bft)
05.12.2013 01:00 -1,2 C 96 % 1027,3 hPa 0,0 l/m 6,0 km/h (2 Bft) S 180 -1,8 C -3,4 C 6,9 km/h (2 Bft)
05.12.2013 01:07 -1,2 C 96 % 1027,1 hPa 0,0 l/m 6,3 km/h (2 Bft) S 180 -1,8 C -3,6 C 10,9 km/h (2 Bft)
05.12.2013 01:10 -1,2 C 96 % 1027,1 hPa 0,0 l/m 6,0 km/h (2 Bft) S-SO 157 -1,8 C -3,4 C 3,5 km/h (1 Bft)
05.12.2013 01:18 -1,2 C 95 % 1027,1 hPa 0,0 l/m 5,1 km/h (1 Bft) S 180 -1,9 C -3,1 C 6,4 km/h (2 Bft)
05.12.2013 01:20 -1,2 C 95 % 1027,1 hPa 0,0 l/m 5,1 km/h (1 Bft) S 180 -1,9 C -3,1 C 6,4 km/h (2 Bft)
05.12.2013 01:29 -1,1 C 95 % 1027,1 hPa 0,0 l/m 4,5 km/h (1 Bft) S 180 -1,8 C -2,6 C 8,9 km/h (2 Bft)
05.12.2013 01:30 -1,1 C 95 % 1027,1 hPa 0,0 l/m 4,5 km/h (1 Bft) S 180 -1,8 C -2,6 C 8,9 km/h (2 Bft)
05.12.2013 01:40 -1,1 C 95 % 1027,1 hPa 0,0 l/m 5,3 km/h (1 Bft) S-SO 157 -1,8 C -2,9 C 4,8 km/h (1 Bft)
05.12.2013 01:45 -0,9 C 95 % 1027,1 hPa 0,0 l/m 4,5 km/h (1 Bft) S 180 -1,6 C -2,5 C 6,4 km/h (2 Bft)
05.12.2013 01:50 -0,9 C 95 % 1027,1 hPa 0,0 l/m 4,7 km/h (1 Bft) W-SW 247 -1,6 C -2,6 C 7,7 km/h (2 Bft)
05.12.2013 01:55 -0,9 C 95 % 1027,1 hPa 0,0 l/m 4,8 km/h (1 Bft) S-SW 202 -1,6 C -2,5 C 4,8 km/h (1 Bft)
05.12.2013 02:01 -0,9 C 95 % 1027,1 hPa 0,0 l/m 3,9 km/h (1 Bft) O-SO 112 -1,6 C -2,0 C 0,0 km/h (0 Bft)
05.12.2013 02:05 -0,9 C 95 % 1027,1 hPa 0,0 l/m 2,6 km/h (1 Bft) W-SW 247 -1,6 C -1,1 C 4,3 km/h (1 Bft)
05.12.2013 02:12 -1,0 C 95 % 1027,1 hPa 0,0 l/m 3,9 km/h (1 Bft) S-SW 202 -1,7 C -2,1 C 1,8 km/h (1 Bft)
05.12.2013 02:15 -1,0 C 95 % 1027,1 hPa 0,0 l/m 3,9 km/h (1 Bft) S-SW 202 -1,7 C -2,1 C 1,8 km/h (1 Bft)
05.12.2013 02:23 -1,0 C 95 % 1027,4 hPa 0,0 l/m 2,4 km/h (1 Bft) O 90 -1,7 C -1,1 C 3,7 km/h (1 Bft)
05.12.2013 02:25 -1,0 C 95 % 1027,4 hPa 0,0 l/m 2,4 km/h (1 Bft) O 90 -1,7 C -1,1 C 3,7 km/h (1 Bft)
05.12.2013 02:34 -1,0 C 95 % 1027,4 hPa 0,0 l/m 2,1 km/h (1 Bft) O-NO 67 -1,7 C -1,0 C 6,8 km/h (2 Bft)
05.12.2013 02:35 -1,0 C 95 % 1027,4 hPa 0,0 l/m 2,1 km/h (1 Bft) O-NO 67 -1,7 C -1,0 C 6,8 km/h (2 Bft)
05.12.2013 02:45 -0,9 C 95 % 1027,5 hPa 0,0 l/m 4,2 km/h (1 Bft) SO 135 -1,6 C -2,2 C 4,5 km/h (1 Bft)
05.12.2013 02:50 -0,9 C 94 % 1027,5 hPa 0,0 l/m 4,2 km/h (1 Bft) S 180 -1,7 C -2,2 C 6,9 km/h (2 Bft)
05.12.2013 02:56 -0,9 C 94 % 1027,5 hPa 0,0 l/m 4,2 km/h (1 Bft) SO 135 -1,7 C -2,2 C 7,1 km/h (2 Bft)
05.12.2013 03:00 -0,9 C 94 % 1027,5 hPa 0,0 l/m 5,3 km/h (1 Bft) S-SO 157 -1,7 C -2,7 C 7,9 km/h (2 Bft)
05.12.2013 03:07 -0,9 C 94 % 1027,4 hPa 0,0 l/m 3,4 km/h (1 Bft) O-SO 112 -1,7 C -1,7 C 11,9 km/h (2 Bft)
05.12.2013 03:10 -0,9 C 94 % 1027,4 hPa 0,0 l/m 3,4 km/h (1 Bft) O-SO 112 -1,7 C -1,7 C 1,6 km/h (1 Bft)
05.12.2013 03:18 -0,9 C 93 % 1027,4 hPa 0,0 l/m 3,2 km/h (1 Bft) O-NO 67 -1,9 C -1,6 C 3,9 km/h (1 Bft)
05.12.2013 03:20 -0,9 C 93 % 1027,4 hPa 0,0 l/m 3,2 km/h (1 Bft) O-NO 67 -1,9 C -1,6 C 3,9 km/h (1 Bft)
05.12.2013 03:29 -0,9 C 93 % 1027,1 hPa 0,0 l/m 4,5 km/h (1 Bft) S 180 -1,9 C -2,2 C 6,6 km/h (2 Bft)
05.12.2013 03:30 -0,9 C 93 % 1027,1 hPa 0,0 l/m 4,5 km/h (1 Bft) S 180 -1,9 C -2,2 C 6,6 km/h (2 Bft)
05.12.2013 03:40 -1,0 C 92 % 1027,1 hPa 0,0 l/m 4,5 km/h (1 Bft) S-SO 157 -2,1 C -2,3 C 3,5 km/h (1 Bft)
05.12.2013 03:45 -1,2 C 92 % 1026,9 hPa 0,0 l/m 3,1 km/h (1 Bft) S 180 -2,3 C -1,6 C 3,7 km/h (1 Bft)
05.12.2013 03:51 -1,1 C 92 % 1026,9 hPa 0,0 l/m 2,7 km/h (1 Bft) SO 135 -2,2 C -1,5 C 5,1 km/h (1 Bft)
05.12.2013 03:55 -1,2 C 92 % 1026,9 hPa 0,0 l/m 2,6 km/h (1 Bft) O-NO 67 -2,3 C -1,3 C 1,6 km/h (1 Bft)
05.12.2013 04:02 -1,3 C 92 % 1026,9 hPa 0,0 l/m 1,4 km/h (1 Bft) W-SW 247 -2,4 C -1,3 C 2,3 km/h (1 Bft)
05.12.2013 04:05 -1,3 C 92 % 1026,9 hPa 0,0 l/m 1,4 km/h (1 Bft) W-SW 247 -2,4 C -1,3 C 2,3 km/h (1 Bft)
05.12.2013 04:13 -1,5 C 92 % 1026,9 hPa 0,0 l/m 0,8 km/h (0 Bft) O-SO 112 -2,6 C -1,4 C 3,5 km/h (1 Bft)
05.12.2013 04:15 -1,5 C 92 % 1026,9 hPa 0,0 l/m 0,8 km/h (0 Bft) O-SO 112 -2,6 C -1,4 C 3,5 km/h (1 Bft)
05.12.2013 04:24 -1,5 C 93 % 1026,7 hPa 0,0 l/m 3,4 km/h (1 Bft) NO 45 -2,5 C -2,2 C 0,0 km/h (0 Bft)
05.12.2013 04:25 -1,5 C 93 % 1026,7 hPa 0,0 l/m 3,4 km/h (1 Bft) NO 45 -2,5 C -2,2 C 0,0 km/h (0 Bft)
05.12.2013 04:35 -1,5 C 93 % 1026,7 hPa 0,0 l/m 1,3 km/h (1 Bft) N-NO 22 -2,5 C -1,3 C 0,0 km/h (0 Bft)
05.12.2013 04:40 -1,5 C 93 % 1026,7 hPa 0,0 l/m 1,0 km/h (0 Bft) NO 45 -2,5 C -1,3 C 2,3 km/h (1 Bft)
05.12.2013 04:46 -1,1 C 93 % 1026,4 hPa 0,0 l/m 2,3 km/h (1 Bft) O 90 -2,1 C -1,3 C 3,2 km/h (1 Bft)
05.12.2013 04:50 -1,0 C 93 % 1026,4 hPa 0,0 l/m 3,7 km/h (1 Bft) O 90 -2,0 C -2,1 C 5,5 km/h (1 Bft)
05.12.2013 04:57 -0,9 C 93 % 1026,4 hPa 0,0 l/m 3,2 km/h (1 Bft) O-SO 112 -1,9 C -1,4 C 3,7 km/h (1 Bft)
05.12.2013 05:00 -0,9 C 93 % 1026,4 hPa 0,0 l/m 3,2 km/h (1 Bft) O-SO 112 -1,9 C -1,4 C 3,7 km/h (1 Bft)
05.12.2013 05:08 -1,1 C 93 % 1026,2 hPa 0,0 l/m 1,4 km/h (1 Bft) W-SW 247 -2,1 C -0,8 C 3,2 km/h (1 Bft)
05.12.2013 05:10 -1,1 C 93 % 1026,2 hPa 0,0 l/m 1,4 km/h (1 Bft) W-SW 247 -2,1 C -0,8 C 3,2 km/h (1 Bft)
05.12.2013 05:19 -1,2 C 93 % 1026,2 hPa 0,0 l/m 0,6 km/h (0 Bft) S-SO 157 -2,2 C -1,1 C 0,0 km/h (0 Bft)
05.12.2013 05:20 -1,2 C 93 % 1026,2 hPa 0,0 l/m 0,6 km/h (0 Bft) S-SO 157 -2,2 C -1,1 C 0,0 km/h (0 Bft)
05.12.2013 05:30 -1,4 C 93 % 1026,1 hPa 0,0 l/m 0,0 km/h (0 Bft) W-SW 247 -2,4 C -1,3 C 0,0 km/h (0 Bft)
05.12.2013 05:35 -1,6 C 93 % 1026,1 hPa 0,0 l/m 0,2 km/h (0 Bft) S-SO 157 -2,6 C -1,5 C 0,0 km/h (0 Bft)
05.12.2013 05:41 -1,7 C 93 % 1026,1 hPa 0,0 l/m 0,2 km/h (0 Bft) S 180 -2,7 C -1,7 C 0,0 km/h (0 Bft)
05.12.2013 05:45 -1,7 C 93 % 1026,3 hPa 0,0 l/m 0,5 km/h (0 Bft) S-SO 157 -2,7 C -1,9 C 1,9 km/h (1 Bft)
05.12.2013 05:52 -1,7 C 93 % 1026,3 hPa 0,0 l/m 0,6 km/h (0 Bft) S-SW 202 -2,7 C -1,8 C 0,0 km/h (0 Bft)
05.12.2013 05:55 -1,7 C 93 % 1026,3 hPa 0,0 l/m 0,8 km/h (0 Bft) O 90 -2,7 C -1,8 C 2,3 km/h (1 Bft)
05.12.2013 06:03 -1,7 C 93 % 1026,2 hPa 0,0 l/m 0,2 km/h (0 Bft) SO 135 -2,7 C -1,7 C 0,0 km/h (0 Bft)
05.12.2013 06:05 -1,7 C 93 % 1026,2 hPa 0,0 l/m 0,2 km/h (0 Bft) SO 135 -2,7 C -1,7 C 0,0 km/h (0 Bft)
05.12.2013 06:14 -1,5 C 93 % 1026,2 hPa 0,0 l/m 0,0 km/h (0 Bft) SO 135 -2,5 C -1,6 C 0,0 km/h (0 Bft)
05.12.2013 06:15 -1,5 C 93 % 1026,2 hPa 0,0 l/m 0,0 km/h (0 Bft) SO 135 -2,5 C -1,6 C 0,0 km/h (0 Bft)
05.12.2013 06:25 -1,6 C 93 % 1026,1 hPa 0,0 l/m 0,2 km/h (0 Bft) NO 45 -2,6 C -1,5 C 0,0 km/h (0 Bft)
05.12.2013 06:30 -1,6 C 93 % 1026,1 hPa 0,0 l/m 0,2 km/h (0 Bft) NO 45 -2,6 C -1,5 C 0,0 km/h (0 Bft)
05.12.2013 06:36 -1,4 C 93 % 1026,1 hPa 0,0 l/m 0,8 km/h (0 Bft) O 90 -2,4 C -1,4 C 3,9 km/h (1 Bft)
05.12.2013 06:40 -1,3 C 94 % 1026,1 hPa 0,0 l/m 2,7 km/h (1 Bft) NO 45 -2,1 C -1,7 C 5,3 km/h (1 Bft)
05.12.2013 06:46 -1,2 C 94 % 1026,0 hPa 0,0 l/m 3,4 km/h (1 Bft) O 90 -2,0 C -2,1 C 0,0 km/h (0 Bft)
05.12.2013 06:50 -1,3 C 94 % 1026,0 hPa 0,0 l/m 1,9 km/h (1 Bft) W-SW 247 -2,1 C -1,1 C 2,4 km/h (1 Bft)
05.12.2013 06:57 -1,3 C 94 % 1026,0 hPa 0,0 l/m 1,0 km/h (0 Bft) W-NW 292 -2,1 C -1,2 C 2,1 km/h (1 Bft)
05.12.2013 07:00 -1,3 C 94 % 1026,0 hPa 0,0 l/m 1,0 km/h (0 Bft) W-NW 292 -2,1 C -1,2 C 2,1 km/h (1 Bft)
05.12.2013 07:08 -1,2 C 94 % 1026,2 hPa 0,0 l/m 1,3 km/h (1 Bft) NO 45 -2,0 C -1,1 C 0,0 km/h (0 Bft)
05.12.2013 07:10 -1,2 C 94 % 1026,2 hPa 0,0 l/m 1,3 km/h (1 Bft) NO 45 -2,0 C -1,1 C 0,0 km/h (0 Bft)
05.12.2013 07:19 -1,0 C 94 % 1026,2 hPa 0,0 l/m 1,1 km/h (1 Bft) SO 135 -1,8 C -1,0 C 0,0 km/h (0 Bft)
05.12.2013 07:20 -1,0 C 94 % 1026,2 hPa 0,0 l/m 1,1 km/h (1 Bft) SO 135 -1,8 C -1,0 C 0,0 km/h (0 Bft)
05.12.2013 07:30 -1,0 C 94 % 1026,1 hPa 0,0 l/m 1,9 km/h (1 Bft) O-SO 112 -1,8 C -0,8 C 0,0 km/h (0 Bft)
05.12.2013 07:35 -0,9 C 94 % 1026,1 hPa 0,0 l/m 1,4 km/h (1 Bft) NO 45 -1,7 C -0,8 C 4,5 km/h (1 Bft)
05.12.2013 07:41 -0,9 C 94 % 1026,1 hPa 0,0 l/m 0,8 km/h (0 Bft) O 90 -1,7 C -0,8 C 1,8 km/h (1 Bft)
05.12.2013 07:45 -0,8 C 94 % 1025,8 hPa 0,0 l/m 1,0 km/h (0 Bft) NO 45 -1,6 C -0,7 C 0,0 km/h (0 Bft)
05.12.2013 07:52 -0,7 C 94 % 1025,8 hPa 0,0 l/m 0,5 km/h (0 Bft) O-SO 112 -1,5 C -0,6 C 0,0 km/h (0 Bft)
05.12.2013 07:55 -0,7 C 94 % 1025,8 hPa 0,0 l/m 0,5 km/h (0 Bft) O-SO 112 -1,5 C -0,6 C 0,0 km/h (0 Bft)
05.12.2013 08:03 -0,7 C 94 % 1026,1 hPa 0,0 l/m 0,6 km/h (0 Bft) SO 135 -1,5 C -0,6 C 3,1 km/h (1 Bft)
05.12.2013 08:05 -0,7 C 94 % 1026,1 hPa 0,0 l/m 0,6 km/h (0 Bft) SO 135 -1,5 C -0,6 C 3,1 km/h (1 Bft)
05.12.2013 08:14 -0,5 C 94 % 1026,1 hPa 0,0 l/m 2,9 km/h (1 Bft) O-SO 112 -1,3 C -0,8 C 2,9 km/h (1 Bft)
05.12.2013 08:15 -0,5 C 94 % 1026,1 hPa 0,0 l/m 2,9 km/h (1 Bft) O-SO 112 -1,3 C -0,8 C 2,9 km/h (1 Bft)
05.12.2013 08:25 -0,4 C 93 % 1025,9 hPa 0,0 l/m 1,6 km/h (1 Bft) O-SO 112 -1,4 C -0,3 C 2,1 km/h (1 Bft)
05.12.2013 08:30 -0,3 C 93 % 1025,9 hPa 0,0 l/m 1,1 km/h (1 Bft) O 90 -1,3 C -0,2 C 0,0 km/h (0 Bft)
05.12.2013 08:36 -0,1 C 93 % 1025,9 hPa 0,0 l/m 1,1 km/h (1 Bft) O 90 -1,1 C 0,0 C 2,6 km/h (1 Bft)
05.12.2013 08:40 0,0 C 93 % 1025,9 hPa 0,0 l/m 1,4 km/h (1 Bft) O-NO 67 -1,0 C 0,1 C 1,8 km/h (1 Bft)
05.12.2013 08:47 0,3 C 93 % 1025,6 hPa 0,0 l/m 2,3 km/h (1 Bft) O-SO 112 -0,7 C 0,5 C 2,7 km/h (1 Bft)
05.12.2013 08:50 0,3 C 93 % 1025,6 hPa 0,0 l/m 2,3 km/h (1 Bft) O-SO 112 -0,7 C 0,5 C 2,7 km/h (1 Bft)
05.12.2013 08:58 0,4 C 93 % 1025,6 hPa 0,0 l/m 1,6 km/h (1 Bft) O 90 -0,6 C 0,7 C 2,1 km/h (1 Bft)
05.12.2013 09:00 0,4 C 93 % 1025,6 hPa 0,0 l/m 1,6 km/h (1 Bft) O 90 -0,6 C 0,7 C 2,1 km/h (1 Bft)
05.12.2013 09:09 0,6 C 93 % 1025,4 hPa 0,0 l/m 0,6 km/h (0 Bft) NO 45 -0,4 C 0,9 C 2,1 km/h (1 Bft)
05.12.2013 09:10 0,6 C 93 % 1025,4 hPa 0,0 l/m 0,6 km/h (0 Bft) NO 45 -0,4 C 0,9 C 2,1 km/h (1 Bft)
05.12.2013 09:20 0,4 C 93 % 1025,4 hPa 0,0 l/m 0,6 km/h (0 Bft) S 180 -0,6 C 0,8 C 0,0 km/h (0 Bft)
05.12.2013 09:25 -0,2 C 92 % 1025,3 hPa 0,0 l/m 0,6 km/h (0 Bft) W-SW 247 -1,3 C 0,6 C 0,0 km/h (0 Bft)
05.12.2013 09:31 -0,3 C 91 % 1025,3 hPa 0,0 l/m 0,5 km/h (0 Bft) W-SW 247 -1,6 C 0,3 C 0,0 km/h (0 Bft)
05.12.2013 09:35 -0,3 C 91 % 1025,3 hPa 0,0 l/m 0,5 km/h (0 Bft) S 180 -1,6 C 0,1 C 0,0 km/h (0 Bft)
05.12.2013 09:42 -0,3 C 91 % 1025,4 hPa 0,0 l/m 2,6 km/h (1 Bft) O-NO 67 -1,6 C -0,4 C 3,1 km/h (1 Bft)
05.12.2013 09:45 -0,3 C 91 % 1025,4 hPa 0,0 l/m 2,6 km/h (1 Bft) O-NO 67 -1,6 C -0,4 C 3,1 km/h (1 Bft)
05.12.2013 09:53 -0,1 C 90 % 1025,4 hPa 0,0 l/m 4,8 km/h (1 Bft) O-SO 112 -1,5 C -1,7 C 6,4 km/h (2 Bft)
05.12.2013 09:55 -0,1 C 90 % 1025,4 hPa 0,0 l/m 4,8 km/h (1 Bft) O-SO 112 -1,5 C -1,7 C 6,4 km/h (2 Bft)
05.12.2013 10:04 0,0 C 89 % 1025,1 hPa 0,0 l/m 5,1 km/h (1 Bft) O-SO 112 -1,6 C -1,3 C 7,4 km/h (2 Bft)
05.12.2013 10:05 0,0 C 89 % 1025,1 hPa 0,0 l/m 5,1 km/h (1 Bft) O-SO 112 -1,6 C -1,3 C 7,4 km/h (2 Bft)
05.12.2013 10:15 0,7 C 88 % 1025,1 hPa 0,0 l/m 6,9 km/h (2 Bft) O-SO 112 -1,1 C -1,6 C 7,6 km/h (2 Bft)
05.12.2013 10:20 0,5 C 87 % 1025,1 hPa 0,0 l/m 7,7 km/h (2 Bft) O-SO 112 -1,4 C -2,8 C 12,2 km/h (2 Bft)
05.12.2013 10:26 0,3 C 86 % 1024,9 hPa 0,0 l/m 7,7 km/h (2 Bft) O-NO 67 -1,8 C -3,0 C 6,9 km/h (2 Bft)
05.12.2013 10:30 0,3 C 87 % 1024,9 hPa 0,0 l/m 7,1 km/h (2 Bft) S 180 -1,6 C -2,4 C 4,5 km/h (1 Bft)
05.12.2013 10:37 0,2 C 87 % 1024,9 hPa 0,0 l/m 5,3 km/h (1 Bft) O-SO 112 -1,7 C -0,9 C 7,2 km/h (2 Bft)
05.12.2013 10:40 0,1 C 88 % 1024,9 hPa 0,0 l/m 5,0 km/h (1 Bft) O 90 -1,6 C -0,9 C 7,4 km/h (2 Bft)
05.12.2013 10:48 -0,1 C 88 % 1024,7 hPa 0,0 l/m 3,1 km/h (1 Bft) O-SO 112 -1,8 C -0,1 C 6,6 km/h (2 Bft)
05.12.2013 10:50 -0,1 C 88 % 1024,7 hPa 0,0 l/m 3,1 km/h (1 Bft) O-SO 112 -1,8 C -0,1 C 6,6 km/h (2 Bft)
05.12.2013 10:59 -0,1 C 89 % 1024,7 hPa 0,0 l/m 1,6 km/h (1 Bft) O 90 -1,7 C 0,5 C 0,0 km/h (0 Bft)
05.12.2013 11:00 -0,1 C 89 % 1024,7 hPa 0,0 l/m 1,6 km/h (1 Bft) O 90 -1,7 C 0,5 C 0,0 km/h (0 Bft)
05.12.2013 11:10 0,4 C 89 % 1024,2 hPa 0,0 l/m 1,0 km/h (0 Bft) SO 135 -1,2 C 0,7 C 0,0 km/h (0 Bft)
05.12.2013 11:15 0,4 C 89 % 1024,2 hPa 0,0 l/m 1,1 km/h (1 Bft) S-SO 157 -1,2 C 0,7 C 0,0 km/h (0 Bft)
05.12.2013 11:21 0,4 C 89 % 1024,2 hPa 0,0 l/m 0,3 km/h (0 Bft) S-SO 157 -1,2 C 0,8 C 0,0 km/h (0 Bft)
05.12.2013 11:25 0,4 C 89 % 1024,1 hPa 0,0 l/m 0,6 km/h (0 Bft) O 90 -1,2 C 0,9 C 0,0 km/h (0 Bft)
05.12.2013 11:32 0,3 C 89 % 1024,1 hPa 0,0 l/m 0,6 km/h (0 Bft) SO 135 -1,3 C 0,9 C 0,0 km/h (0 Bft)
05.12.2013 11:35 0,2 C 89 % 1024,1 hPa 0,0 l/m 0,0 km/h (0 Bft) O 90 -1,4 C 0,9 C 0,0 km/h (0 Bft)
05.12.2013 11:43 0,4 C 89 % 1023,7 hPa 0,0 l/m 0,5 km/h (0 Bft) S 180 -1,2 C 1,0 C 0,0 km/h (0 Bft)
05.12.2013 11:45 0,4 C 89 % 1023,7 hPa 0,0 l/m 0,5 km/h (0 Bft) S 180 -1,2 C 1,0 C 0,0 km/h (0 Bft)
05.12.2013 11:52 0,6 C 90 % 1023,7 hPa 0,0 l/m 0,0 km/h (0 Bft) S-SW 202 -0,8 C 1,2 C 0,0 km/h (0 Bft)
05.12.2013 11:55 0,6 C 90 % 1023,7 hPa 0,0 l/m 0,0 km/h (0 Bft) S-SW 202 -0,8 C 1,2 C 0,0 km/h (0 Bft)
05.12.2013 12:03 0,5 C 89 % 1023,5 hPa 0,0 l/m 2,6 km/h (1 Bft) S 180 -1,1 C 1,4 C 6,8 km/h (2 Bft)
05.12.2013 12:05 0,5 C 89 % 1023,5 hPa 0,0 l/m 2,6 km/h (1 Bft) S 180 -1,1 C 1,4 C 6,8 km/h (2 Bft)
05.12.2013 12:14 0,5 C 89 % 1023,5 hPa 0,0 l/m 3,7 km/h (1 Bft) SO 135 -1,1 C 1,0 C 4,3 km/h (1 Bft)
05.12.2013 12:15 0,5 C 89 % 1023,5 hPa 0,0 l/m 3,7 km/h (1 Bft) SO 135 -1,1 C 1,0 C 4,3 km/h (1 Bft)
05.12.2013 12:25 0,5 C 89 % 1023,1 hPa 0,0 l/m 2,3 km/h (1 Bft) S 180 -1,1 C 1,8 C 3,9 km/h (1 Bft)
05.12.2013 12:30 0,5 C 89 % 1023,1 hPa 0,0 l/m 2,6 km/h (1 Bft) S-SO 157 -1,1 C 1,8 C 7,1 km/h (2 Bft)
05.12.2013 12:36 0,4 C 89 % 1023,1 hPa 0,0 l/m 5,0 km/h (1 Bft) S 180 -1,2 C 0,7 C 3,1 km/h (1 Bft)
05.12.2013 12:40 0,5 C 89 % 1023,1 hPa 0,0 l/m 5,1 km/h (1 Bft) SW 225 -1,1 C 0,6 C 4,8 km/h (1 Bft)
05.12.2013 12:47 0,7 C 89 % 1022,8 hPa 0,0 l/m 2,9 km/h (1 Bft) S-SW 202 -0,9 C 1,7 C 4,8 km/h (1 Bft)
05.12.2013 12:50 0,7 C 89 % 1022,8 hPa 0,0 l/m 2,9 km/h (1 Bft) S-SW 202 -0,9 C 1,7 C 4,8 km/h (1 Bft)
05.12.2013 12:58 0,6 C 89 % 1022,8 hPa 0,0 l/m 2,6 km/h (1 Bft) SO 135 -1,0 C 1,9 C 2,6 km/h (1 Bft)
05.12.2013 13:00 0,6 C 89 % 1022,8 hPa 0,0 l/m 2,6 km/h (1 Bft) SO 135 -1,0 C 1,9 C 2,6 km/h (1 Bft)
05.12.2013 13:09 0,8 C 89 % 1022,1 hPa 0,0 l/m 0,8 km/h (0 Bft) SO 135 -0,8 C 1,6 C 3,2 km/h (1 Bft)
05.12.2013 13:10 0,8 C 89 % 1022,1 hPa 0,0 l/m 0,8 km/h (0 Bft) SO 135 -0,8 C 1,6 C 3,2 km/h (1 Bft)
05.12.2013 13:20 0,6 C 88 % 1022,1 hPa 0,0 l/m 1,3 km/h (1 Bft) S 180 -1,2 C 1,7 C 2,1 km/h (1 Bft)
05.12.2013 13:25 0,5 C 88 % 1021,7 hPa 0,0 l/m 0,8 km/h (0 Bft) W-SW 247 -1,3 C 1,7 C 3,1 km/h (1 Bft)
05.12.2013 13:31 0,6 C 88 % 1021,7 hPa 0,0 l/m 1,0 km/h (0 Bft) S-SW 202 -1,2 C 1,8 C 0,0 km/h (0 Bft)
05.12.2013 13:35 0,7 C 88 % 1021,7 hPa 0,0 l/m 1,9 km/h (1 Bft) S-SW 202 -1,1 C 3,1 C 4,5 km/h (1 Bft)
05.12.2013 13:42 0,7 C 88 % 1021,4 hPa 0,0 l/m 2,4 km/h (1 Bft) S 180 -1,1 C 6,8 C 3,9 km/h (1 Bft)
05.12.2013 13:45 0,7 C 88 % 1021,4 hPa 0,0 l/m 2,4 km/h (1 Bft) S 180 -1,1 C 6,8 C 3,9 km/h (1 Bft)
05.12.2013 13:53 1,9 C 87 % 1021,4 hPa 0,0 l/m 3,4 km/h (1 Bft) S 180 -0,0 C 8,1 C 5,5 km/h (1 Bft)
05.12.2013 13:55 1,9 C 87 % 1021,4 hPa 0,0 l/m 3,4 km/h (1 Bft) S 180 -0,0 C 8,1 C 5,5 km/h (1 Bft)
05.12.2013 14:04 2,3 C 83 % 1021,0 hPa 0,0 l/m 3,9 km/h (1 Bft) S 180 -0,3 C 8,3 C 3,5 km/h (1 Bft)
05.12.2013 14:05 2,3 C 83 % 1021,0 hPa 0,0 l/m 3,9 km/h (1 Bft) S 180 -0,3 C 8,3 C 3,5 km/h (1 Bft)
05.12.2013 14:15 2,2 C 81 % 1021,0 hPa 0,0 l/m 3,7 km/h (1 Bft) W-SW 247 -0,7 C 8,1 C 7,6 km/h (2 Bft)
05.12.2013 14:20 1,9 C 81 % 1021,0 hPa 0,0 l/m 4,5 km/h (1 Bft) S-SO 157 -1,0 C 6,7 C 3,7 km/h (1 Bft)
05.12.2013 14:26 1,8 C 81 % 1020,8 hPa 0,0 l/m 3,4 km/h (1 Bft) S 180 -1,1 C 6,1 C 1,8 km/h (1 Bft)
05.12.2013 14:30 1,6 C 81 % 1020,8 hPa 0,0 l/m 2,1 km/h (1 Bft) SW 225 -1,3 C 6,4 C 3,9 km/h (1 Bft)
05.12.2013 14:37 1,4 C 81 % 1020,8 hPa 0,0 l/m 2,9 km/h (1 Bft) S 180 -1,5 C 7,2 C 6,0 km/h (2 Bft)
05.12.2013 14:40 1,4 C 81 % 1020,8 hPa 0,0 l/m 2,9 km/h (1 Bft) S 180 -1,5 C 7,2 C 6,0 km/h (2 Bft)
05.12.2013 14:48 1,7 C 79 % 1020,6 hPa 0,0 l/m 6,1 km/h (2 Bft) SO 135 -1,5 C 3,7 C 6,3 km/h (2 Bft)
05.12.2013 14:50 1,7 C 79 % 1020,6 hPa 0,0 l/m 6,1 km/h (2 Bft) SO 135 -1,5 C 3,7 C 6,3 km/h (2 Bft)
05.12.2013 14:59 1,5 C 78 % 1020,6 hPa 0,0 l/m 6,0 km/h (2 Bft) SW 225 -1,9 C 2,8 C 7,1 km/h (2 Bft)
05.12.2013 15:00 1,5 C 78 % 1020,6 hPa 0,0 l/m 6,0 km/h (2 Bft) SW 225 -1,9 C 2,8 C 7,1 km/h (2 Bft)
05.12.2013 15:10 1,6 C 79 % 1020,6 hPa 0,0 l/m 5,1 km/h (1 Bft) S 180 -1,6 C 2,0 C 5,1 km/h (1 Bft)
05.12.2013 15:15 1,4 C 79 % 1020,6 hPa 0,0 l/m 4,8 km/h (1 Bft) S 180 -1,8 C 1,8 C 7,2 km/h (2 Bft)
05.12.2013 15:21 1,5 C 79 % 1020,6 hPa 0,0 l/m 4,7 km/h (1 Bft) O-SO 112 -1,7 C 1,6 C 4,5 km/h (1 Bft)
05.12.2013 15:25 1,5 C 79 % 1020,1 hPa 0,0 l/m 4,2 km/h (1 Bft) SO 135 -1,7 C 1,4 C 7,2 km/h (2 Bft)
05.12.2013 15:32 1,4 C 79 % 1020,1 hPa 0,0 l/m 4,3 km/h (1 Bft) SO 135 -1,8 C 1,2 C 3,7 km/h (1 Bft)
05.12.2013 15:35 1,3 C 79 % 1020,1 hPa 0,0 l/m 4,5 km/h (1 Bft) S 180 -1,9 C 0,9 C 1,9 km/h (1 Bft)
05.12.2013 15:43 1,2 C 78 % 1019,8 hPa 0,0 l/m 6,1 km/h (2 Bft) S 180 -2,2 C 0,1 C 7,1 km/h (2 Bft)
05.12.2013 15:45 1,2 C 78 % 1019,8 hPa 0,0 l/m 6,1 km/h (2 Bft) S 180 -2,2 C 0,1 C 7,1 km/h (2 Bft)
05.12.2013 15:54 0,8 C 79 % 1019,8 hPa 0,0 l/m 5,8 km/h (2 Bft) S-SO 157 -2,4 C 0,0 C 12,6 km/h (3 Bft)
05.12.2013 15:55 0,8 C 79 % 1019,8 hPa 0,0 l/m 5,8 km/h (2 Bft) S-SO 157 -2,4 C 0,0 C 4,8 km/h (1 Bft)
05.12.2013 16:05 1,0 C 78 % 1019,5 hPa 0,0 l/m 5,5 km/h (1 Bft) O 90 -2,4 C -0,2 C 6,1 km/h (2 Bft)
05.12.2013 16:10 0,8 C 78 % 1019,5 hPa 0,0 l/m 5,5 km/h (1 Bft) S 180 -2,6 C -0,4 C 9,2 km/h (2 Bft)
05.12.2013 16:16 0,9 C 78 % 1019,5 hPa 0,0 l/m 5,8 km/h (2 Bft) S 180 -2,5 C -0,7 C 8,7 km/h (2 Bft)
05.12.2013 16:20 1,0 C 77 % 1019,5 hPa 0,0 l/m 6,4 km/h (2 Bft) O 90 -2,6 C -1,1 C 7,9 km/h (2 Bft)
05.12.2013 16:27 1,0 C 76 % 1019,0 hPa 0,0 l/m 7,4 km/h (2 Bft) SO 135 -2,7 C -2,5 C 14,6 km/h (3 Bft)
05.12.2013 16:30 0,9 C 77 % 1019,0 hPa 0,0 l/m 7,7 km/h (2 Bft) O-SO 112 -2,7 C -2,9 C 8,0 km/h (2 Bft)
05.12.2013 16:38 1,1 C 76 % 1019,0 hPa 0,0 l/m 5,5 km/h (1 Bft) SO 135 -2,6 C -0,9 C 15,9 km/h (3 Bft)
05.12.2013 16:40 1,1 C 76 % 1019,0 hPa 0,0 l/m 5,5 km/h (1 Bft) SO 135 -2,6 C -0,9 C 5,8 km/h (2 Bft)
05.12.2013 16:48 1,1 C 76 % 1018,6 hPa 0,0 l/m 5,5 km/h (1 Bft) SO 135 -2,6 C -1,0 C 8,0 km/h (2 Bft)
05.12.2013 16:50 1,1 C 76 % 1018,6 hPa 0,0 l/m 5,5 km/h (1 Bft) SO 135 -2,6 C -1,0 C 8,0 km/h (2 Bft)
05.12.2013 16:59 0,7 C 77 % 1018,6 hPa 0,0 l/m 7,2 km/h (2 Bft) S 180 -2,9 C -2,4 C 6,4 km/h (2 Bft)
05.12.2013 17:00 0,7 C 77 % 1018,6 hPa 0,0 l/m 7,2 km/h (2 Bft) S 180 -2,9 C -2,4 C 6,4 km/h (2 Bft)
05.12.2013 17:10 0,7 C 78 % 1018,8 hPa 0,0 l/m 6,8 km/h (2 Bft) SO 135 -2,7 C -1,8 C 5,8 km/h (2 Bft)
05.12.2013 17:15 0,8 C 78 % 1018,8 hPa 0,0 l/m 6,8 km/h (2 Bft) SO 135 -2,6 C -1,9 C 7,4 km/h (2 Bft)
05.12.2013 17:21 0,7 C 79 % 1018,8 hPa 0,0 l/m 6,4 km/h (2 Bft) O-SO 112 -2,5 C -1,5 C 7,4 km/h (2 Bft)
05.12.2013 17:25 0,6 C 79 % 1018,4 hPa 0,0 l/m 6,8 km/h (2 Bft) S 180 -2,6 C -2,0 C 9,0 km/h (2 Bft)
05.12.2013 17:32 0,8 C 80 % 1018,4 hPa 0,0 l/m 9,0 km/h (2 Bft) S-SO 157 -2,2 C -4,8 C 15,1 km/h (3 Bft)
05.12.2013 17:35 0,8 C 80 % 1018,4 hPa 0,0 l/m 9,0 km/h (2 Bft) S-SO 157 -2,2 C -4,8 C 17,1 km/h (3 Bft)
05.12.2013 17:43 0,8 C 81 % 1018,4 hPa 0,0 l/m 11,7 km/h (2 Bft) S-SW 202 -2,1 C -7,8 C 26,2 km/h (4 Bft)
05.12.2013 17:45 0,8 C 81 % 1018,4 hPa 0,0 l/m 11,7 km/h (2 Bft) S-SW 202 -2,1 C -7,8 C 15,6 km/h (3 Bft)
05.12.2013 17:54 1,1 C 81 % 1018,4 hPa 0,0 l/m 16,4 km/h (3 Bft) S-SW 202 -1,8 C -11,4 C 32,5 km/h (5 Bft)
05.12.2013 17:55 1,1 C 81 % 1018,4 hPa 0,0 l/m 16,4 km/h (3 Bft) S-SW 202 -1,8 C -11,4 C 21,4 km/h (4 Bft)
05.12.2013 18:05 1,1 C 81 % 1018,3 hPa 0,0 l/m 15,8 km/h (3 Bft) S-SO 157 -1,8 C -10,8 C 13,2 km/h (3 Bft)
05.12.2013 18:10 1,0 C 81 % 1018,3 hPa 0,0 l/m 15,9 km/h (3 Bft) S 180 -1,9 C -11,1 C 30,4 km/h (5 Bft)
05.12.2013 18:16 1,1 C 81 % 1018,3 hPa 0,0 l/m 15,6 km/h (3 Bft) S 180 -1,8 C -10,8 C 21,1 km/h (4 Bft)
05.12.2013 18:20 0,9 C 81 % 1018,3 hPa 0,0 l/m 15,8 km/h (3 Bft) S 180 -2,0 C -10,9 C 17,7 km/h (3 Bft)
05.12.2013 18:27 1,0 C 80 % 1018,0 hPa 0,0 l/m 14,0 km/h (3 Bft) SO 135 -2,1 C -9,6 C 10,8 km/h (2 Bft)
05.12.2013 18:30 1,0 C 80 % 1018,0 hPa 0,0 l/m 14,0 km/h (3 Bft) SO 135 -2,1 C -9,6 C 10,8 km/h (2 Bft)
05.12.2013 18:38 0,8 C 80 % 1018,0 hPa 0,0 l/m 14,0 km/h (3 Bft) N 360 -2,2 C -9,6 C 13,5 km/h (3 Bft)
05.12.2013 18:40 0,8 C 80 % 1018,0 hPa 0,0 l/m 14,0 km/h (3 Bft) N 360 -2,2 C -9,6 C 13,5 km/h (3 Bft)
05.12.2013 18:49 0,8 C 81 % 1017,4 hPa 0,0 l/m 13,7 km/h (3 Bft) S-SW 202 -2,1 C -9,4 C 10,8 km/h (2 Bft)
05.12.2013 18:50 0,8 C 81 % 1017,4 hPa 0,0 l/m 13,7 km/h (3 Bft) S-SW 202 -2,1 C -9,4 C 10,8 km/h (2 Bft)
05.12.2013 19:00 1,0 C 80 % 1017,4 hPa 0,0 l/m 11,6 km/h (2 Bft) SO 135 -2,1 C -7,2 C 15,8 km/h (3 Bft)
05.12.2013 19:05 1,1 C 79 % 1017,3 hPa 0,0 l/m 12,9 km/h (3 Bft) S-SO 157 -2,1 C -8,2 C 13,4 km/h (3 Bft)
05.12.2013 19:11 1,1 C 79 % 1017,3 hPa 0,0 l/m 12,2 km/h (2 Bft) S-SO 157 -2,1 C -7,6 C 14,6 km/h (3 Bft)
05.12.2013 19:15 1,1 C 79 % 1017,3 hPa 0,0 l/m 12,4 km/h (3 Bft) S 180 -2,1 C -7,7 C 12,7 km/h (3 Bft)
05.12.2013 19:22 1,2 C 79 % 1017,4 hPa 0,0 l/m 11,7 km/h (2 Bft) S 180 -2,0 C -6,8 C 11,1 km/h (2 Bft)
05.12.2013 19:25 1,2 C 79 % 1017,4 hPa 0,0 l/m 11,7 km/h (2 Bft) S 180 -2,0 C -6,8 C 11,1 km/h (2 Bft)
05.12.2013 19:33 1,5 C 78 % 1017,4 hPa 0,0 l/m 13,8 km/h (3 Bft) S-SW 202 -1,9 C -8,7 C 13,2 km/h (3 Bft)
05.12.2013 19:35 1,5 C 78 % 1017,4 hPa 0,0 l/m 13,8 km/h (3 Bft) S-SW 202 -1,9 C -8,7 C 13,2 km/h (3 Bft)
05.12.2013 19:44 1,6 C 78 % 1017,3 hPa 0,0 l/m 15,4 km/h (3 Bft) S 180 -1,8 C -9,8 C 21,7 km/h (4 Bft)
05.12.2013 19:45 1,6 C 78 % 1017,3 hPa 0,0 l/m 15,4 km/h (3 Bft) S 180 -1,8 C -9,8 C 21,7 km/h (4 Bft)
05.12.2013 19:55 1,7 C 77 % 1017,3 hPa 0,0 l/m 15,9 km/h (3 Bft) S-SO 157 -1,9 C -10,0 C 22,0 km/h (4 Bft)
05.12.2013 20:00 1,6 C 77 % 1017,3 hPa 0,0 l/m 15,0 km/h (3 Bft) S 180 -2,0 C -9,2 C 21,4 km/h (4 Bft)
05.12.2013 20:06 1,5 C 77 % 1017,2 hPa 0,0 l/m 13,7 km/h (3 Bft) S-SO 157 -2,1 C -8,2 C 10,5 km/h (2 Bft)
05.12.2013 20:10 1,5 C 78 % 1017,2 hPa 0,0 l/m 13,0 km/h (3 Bft) S 180 -1,9 C -7,7 C 19,6 km/h (3 Bft)
05.12.2013 20:17 1,5 C 78 % 1017,2 hPa 0,0 l/m 12,1 km/h (2 Bft) S 180 -1,9 C -6,7 C 13,7 km/h (3 Bft)
05.12.2013 20:20 1,5 C 78 % 1017,2 hPa 0,0 l/m 11,9 km/h (2 Bft) S-SO 157 -1,9 C -6,5 C 16,9 km/h (3 Bft)
05.12.2013 20:28 1,6 C 77 % 1016,9 hPa 0,0 l/m 9,7 km/h (2 Bft) S-SW 202 -2,0 C -4,0 C 11,7 km/h (2 Bft)
05.12.2013 20:30 1,6 C 77 % 1016,9 hPa 0,0 l/m 9,7 km/h (2 Bft) S-SW 202 -2,0 C -4,0 C 11,7 km/h (2 Bft)
05.12.2013 20:39 1,8 C 76 % 1016,9 hPa 0,0 l/m 9,0 km/h (2 Bft) S 180 -2,0 C -2,9 C 15,9 km/h (3 Bft)
05.12.2013 20:40 1,8 C 76 % 1016,9 hPa 0,0 l/m 9,0 km/h (2 Bft) S 180 -2,0 C -2,9 C 15,9 km/h (3 Bft)
05.12.2013 20:50 2,0 C 75 % 1016,6 hPa 0,0 l/m 10,9 km/h (2 Bft) SO 135 -2,0 C -4,6 C 11,6 km/h (2 Bft)
05.12.2013 20:55 1,9 C 75 % 1016,6 hPa 0,0 l/m 11,4 km/h (2 Bft) S 180 -2,1 C -5,0 C 18,8 km/h (3 Bft)
05.12.2013 21:01 2,0 C 75 % 1016,6 hPa 0,0 l/m 11,7 km/h (2 Bft) S-SO 157 -2,0 C -5,2 C 11,3 km/h (2 Bft)
05.12.2013 21:05 2,1 C 75 % 1016,0 hPa 0,0 l/m 10,5 km/h (2 Bft) S 180 -1,9 C -4,0 C 13,0 km/h (3 Bft)
05.12.2013 21:12 2,2 C 74 % 1016,0 hPa 0,0 l/m 9,8 km/h (2 Bft) S 180 -1,9 C -3,2 C 13,0 km/h (3 Bft)
05.12.2013 21:15 2,3 C 74 % 1016,0 hPa 0,0 l/m 10,9 km/h (2 Bft) S-SO 157 -1,8 C -3,9 C 12,4 km/h (3 Bft)
05.12.2013 21:23 2,7 C 71 % 1015,6 hPa 0,0 l/m 8,0 km/h (2 Bft) S 180 -2,0 C -0,7 C 7,6 km/h (2 Bft)
05.12.2013 21:25 2,7 C 71 % 1015,6 hPa 0,0 l/m 8,0 km/h (2 Bft) S 180 -2,0 C -0,7 C 7,6 km/h (2 Bft)
05.12.2013 21:34 3,0 C 68 % 1015,6 hPa 0,0 l/m 8,5 km/h (2 Bft) S 180 -2,3 C -0,4 C 7,9 km/h (2 Bft)
05.12.2013 21:35 3,0 C 68 % 1015,6 hPa 0,0 l/m 8,5 km/h (2 Bft) S 180 -2,3 C -0,4 C 7,9 km/h (2 Bft)
05.12.2013 21:44 4,1 C 59 % 1015,2 hPa 0,0 l/m 7,6 km/h (2 Bft) SO 135 -3,2 C 1,3 C 8,7 km/h (2 Bft)
05.12.2013 21:45 4,1 C 59 % 1015,2 hPa 0,0 l/m 7,6 km/h (2 Bft) SO 135 -3,2 C 1,3 C 8,7 km/h (2 Bft)
05.12.2013 21:55 4,3 C 57 % 1015,2 hPa 0,0 l/m 8,0 km/h (2 Bft) S-SW 202 -3,5 C 1,9 C 8,4 km/h (2 Bft)
05.12.2013 22:00 4,4 C 55 % 1015,2 hPa 0,0 l/m 9,3 km/h (2 Bft) S 180 -3,8 C 0,7 C 13,7 km/h (3 Bft)
05.12.2013 22:06 4,6 C 53 % 1014,9 hPa 0,0 l/m 9,8 km/h (2 Bft) S-SO 157 -4,1 C 0,7 C 11,3 km/h (2 Bft)
05.12.2013 22:10 4,8 C 53 % 1014,9 hPa 0,0 l/m 8,9 km/h (2 Bft) S 180 -4,0 C 1,9 C 6,4 km/h (2 Bft)
05.12.2013 22:17 4,1 C 57 % 1014,9 hPa 0,0 l/m 10,0 km/h (2 Bft) S-SW 202 -3,6 C -0,0 C 13,4 km/h (3 Bft)
05.12.2013 22:20 4,1 C 57 % 1014,9 hPa 0,0 l/m 10,0 km/h (2 Bft) S-SW 202 -3,6 C -0,0 C 13,4 km/h (3 Bft)
05.12.2013 22:28 3,8 C 59 % 1015,2 hPa 0,0 l/m 12,4 km/h (3 Bft) SO 135 -3,5 C -3,1 C 10,5 km/h (2 Bft)
05.12.2013 22:30 3,8 C 59 % 1015,2 hPa 0,0 l/m 12,4 km/h (3 Bft) SO 135 -3,5 C -3,1 C 10,5 km/h (2 Bft)
05.12.2013 22:39 3,5 C 61 % 1015,2 hPa 0,0 l/m 13,2 km/h (3 Bft) S-SW 202 -3,3 C -4,3 C 15,0 km/h (3 Bft)
05.12.2013 22:40 3,5 C 61 % 1015,2 hPa 0,0 l/m 13,2 km/h (3 Bft) S-SW 202 -3,3 C -4,3 C 15,0 km/h (3 Bft)
05.12.2013 22:50 3,4 C 63 % 1015,6 hPa 0,0 l/m 14,6 km/h (3 Bft) S-SW 202 -3,0 C -5,7 C 15,1 km/h (3 Bft)
05.12.2013 22:55 3,2 C 65 % 1015,6 hPa 0,0 l/m 14,3 km/h (3 Bft) S 180 -2,7 C -5,7 C 18,3 km/h (3 Bft)
05.12.2013 23:01 3,1 C 66 % 1015,6 hPa 0,0 l/m 14,2 km/h (3 Bft) S-SW 202 -2,6 C -5,8 C 15,3 km/h (3 Bft)
05.12.2013 23:05 3,0 C 67 % 1016,2 hPa 0,0 l/m 15,6 km/h (3 Bft) SW 225 -2,5 C -7,0 C 18,0 km/h (3 Bft)
05.12.2013 23:12 2,9 C 69 % 1016,2 hPa 0,0 l/m 16,9 km/h (3 Bft) O-SO 112 -2,2 C -8,4 C 20,9 km/h (4 Bft)
05.12.2013 23:15 2,9 C 69 % 1016,2 hPa 0,0 l/m 16,9 km/h (3 Bft) O-SO 112 -2,2 C -8,4 C 33,0 km/h (5 Bft)
05.12.2013 23:23 3,0 C 68 % 1016,3 hPa 0,0 l/m 18,7 km/h (3 Bft) S-SO 157 -2,3 C -10,0 C 40,2 km/h (6 Bft)
05.12.2013 23:25 3,0 C 68 % 1016,3 hPa 0,0 l/m 18,7 km/h (3 Bft) S-SO 157 -2,3 C -10,0 C 36,0 km/h (5 Bft)
05.12.2013 23:34 3,1 C 67 % 1016,3 hPa 0,0 l/m 22,5 km/h (4 Bft) S-SO 157 -2,4 C -12,5 C 44,6 km/h (6 Bft)
05.12.2013 23:35 3,1 C 67 % 1016,3 hPa 0,0 l/m 22,5 km/h (4 Bft) S-SO 157 -2,4 C -12,5 C 32,2 km/h (5 Bft)
05.12.2013 23:45 3,0 C 66 % 1016,4 hPa 0,0 l/m 25,9 km/h (4 Bft) S 180 -2,7 C -14,1 C 49,7 km/h (6 Bft)
05.12.2013 23:50 3,0 C 65 % 1016,4 hPa 0,0 l/m 26,4 km/h (4 Bft) S 180 -2,9 C -14,4 C 26,6 km/h (4 Bft)
05.12.2013 23:56 3,0 C 64 % 1016,4 hPa 0,0 l/m 26,4 km/h (4 Bft) S-SO 157 -3,1 C -14,0 C 36,7 km/h (5 Bft)
_ Min-Zeit 06:05 22:10 22:20 - 11:55 - - 22:06 23:50 13:31
Minimum _ -1,7 C 53 % 1014,9 hPa - 0,0 km/h (0 Bft) - - -4,1 C -14,4 C 0,0 km/h (0 Bft)
_ Max-Zeit 22:10 01:10 03:00 23:56 23:56 - - 13:55 14:05 23:45
Maximum _ 4,8 C 96 % 1027,5 hPa 0,0 l/m 26,4 km/h
S-SO (4 Bft)
- - -0,0 C 8,3 C 49,7 km/h
S (6 Bft)
Durchschnitt _ 0,5 C 85 % 1022,4 hPa #0,0 l/m 6,0 km/h (2 Bft) S - -1,9 C -2,0 C 7,8 km/h (2 Bft)